sensor_id;sensor_type;location;lat;lon;timestamp;P1;durP1;ratioP1;P2;durP2;ratioP2
19519;SDS011;9904;52.246;20.898;2023-10-31T00:00:46;28.30;;;14.57;;
19519;SDS011;9904;52.246;20.898;2023-10-31T00:03:12;33.40;;;15.20;;
19519;SDS011;9904;52.246;20.898;2023-10-31T00:05:39;33.17;;;14.13;;
19519;SDS011;9904;52.246;20.898;2023-10-31T00:08:07;26.77;;;13.73;;
19519;SDS011;9904;52.246;20.898;2023-10-31T00:10:34;27.30;;;13.37;;
19519;SDS011;9904;52.246;20.898;2023-10-31T00:13:01;30.87;;;13.97;;
19519;SDS011;9904;52.246;20.898;2023-10-31T00:15:27;29.03;;;13.30;;
19519;SDS011;9904;52.246;20.898;2023-10-31T00:17:57;33.90;;;14.13;;
19519;SDS011;9904;52.246;20.898;2023-10-31T00:20:24;26.07;;;14.00;;
19519;SDS011;9904;52.246;20.898;2023-10-31T00:22:53;29.20;;;13.67;;
19519;SDS011;9904;52.246;20.898;2023-10-31T00:25:20;26.00;;;13.20;;
19519;SDS011;9904;52.246;20.898;2023-10-31T00:27:47;31.23;;;13.47;;
19519;SDS011;9904;52.246;20.898;2023-10-31T00:30:14;30.30;;;13.20;;
19519;SDS011;9904;52.246;20.898;2023-10-31T00:32:41;25.70;;;12.47;;
19519;SDS011;9904;52.246;20.898;2023-10-31T00:35:07;26.77;;;12.40;;
19519;SDS011;9904;52.246;20.898;2023-10-31T00:37:34;35.83;;;13.47;;
19519;SDS011;9904;52.246;20.898;2023-10-31T00:40:01;34.27;;;13.63;;
19519;SDS011;9904;52.246;20.898;2023-10-31T00:42:27;28.07;;;14.07;;
19519;SDS011;9904;52.246;20.898;2023-10-31T00:45:03;24.90;;;13.63;;
19519;SDS011;9904;52.246;20.898;2023-10-31T00:47:30;28.47;;;13.30;;
19519;SDS011;9904;52.246;20.898;2023-10-31T00:49:57;25.00;;;12.57;;
19519;SDS011;9904;52.246;20.898;2023-10-31T00:52:23;24.37;;;12.10;;
19519;SDS011;9904;52.246;20.898;2023-10-31T00:54:50;27.83;;;11.70;;
19519;SDS011;9904;52.246;20.898;2023-10-31T00:57:16;20.47;;;11.17;;
19519;SDS011;9904;52.246;20.898;2023-10-31T00:59:44;22.90;;;11.17;;
19519;SDS011;9904;52.246;20.898;2023-10-31T01:02:11;27.60;;;11.30;;
19519;SDS011;9904;52.246;20.898;2023-10-31T01:04:37;27.40;;;10.40;;
19519;SDS011;9904;52.246;20.898;2023-10-31T01:07:04;24.23;;;10.23;;
19519;SDS011;9904;52.246;20.898;2023-10-31T01:09:39;19.90;;;9.67;;
19519;SDS011;9904;52.246;20.898;2023-10-31T01:12:11;25.73;;;10.50;;
19519;SDS011;9904;52.246;20.898;2023-10-31T01:14:38;17.10;;;9.03;;
19519;SDS011;9904;52.246;20.898;2023-10-31T01:17:05;19.00;;;9.27;;
19519;SDS011;9904;52.246;20.898;2023-10-31T01:19:40;27.30;;;9.97;;
19519;SDS011;9904;52.246;20.898;2023-10-31T01:22:07;24.27;;;10.00;;
19519;SDS011;9904;52.246;20.898;2023-10-31T01:24:35;21.60;;;9.40;;
19519;SDS011;9904;52.246;20.898;2023-10-31T01:27:02;18.03;;;9.43;;
19519;SDS011;9904;52.246;20.898;2023-10-31T01:29:29;19.67;;;9.43;;
19519;SDS011;9904;52.246;20.898;2023-10-31T01:31:57;20.70;;;9.43;;
19519;SDS011;9904;52.246;20.898;2023-10-31T01:34:28;18.50;;;8.73;;
19519;SDS011;9904;52.246;20.898;2023-10-31T01:36:59;23.07;;;8.50;;
19519;SDS011;9904;52.246;20.898;2023-10-31T01:39:25;21.27;;;9.43;;
19519;SDS011;9904;52.246;20.898;2023-10-31T01:41:52;21.30;;;9.37;;
19519;SDS011;9904;52.246;20.898;2023-10-31T01:44:21;21.47;;;8.60;;
19519;SDS011;9904;52.246;20.898;2023-10-31T01:46:48;22.77;;;9.20;;
19519;SDS011;9904;52.246;20.898;2023-10-31T01:49:15;20.07;;;9.20;;
19519;SDS011;9904;52.246;20.898;2023-10-31T01:51:42;22.13;;;9.33;;
19519;SDS011;9904;52.246;20.898;2023-10-31T01:54:13;19.53;;;9.27;;
19519;SDS011;9904;52.246;20.898;2023-10-31T01:56:41;17.20;;;9.70;;
19519;SDS011;9904;52.246;20.898;2023-10-31T01:59:08;20.03;;;9.33;;
19519;SDS011;9904;52.246;20.898;2023-10-31T02:01:37;19.37;;;8.93;;
19519;SDS011;9904;52.246;20.898;2023-10-31T02:04:08;18.53;;;8.73;;
19519;SDS011;9904;52.246;20.898;2023-10-31T02:06:35;22.73;;;8.97;;
19519;SDS011;9904;52.246;20.898;2023-10-31T02:09:01;20.10;;;9.40;;
19519;SDS011;9904;52.246;20.898;2023-10-31T02:11:28;17.03;;;8.57;;
19519;SDS011;9904;52.246;20.898;2023-10-31T02:14:00;16.83;;;7.90;;
19519;SDS011;9904;52.246;20.898;2023-10-31T02:16:28;19.70;;;8.33;;
19519;SDS011;9904;52.246;20.898;2023-10-31T02:18:55;19.93;;;8.13;;
19519;SDS011;9904;52.246;20.898;2023-10-31T02:21:22;17.67;;;7.20;;
19519;SDS011;9904;52.246;20.898;2023-10-31T02:23:57;23.97;;;7.80;;
19519;SDS011;9904;52.246;20.898;2023-10-31T02:26:31;12.67;;;6.90;;
19519;SDS011;9904;52.246;20.898;2023-10-31T02:28:59;16.00;;;6.80;;
19519;SDS011;9904;52.246;20.898;2023-10-31T02:31:27;17.43;;;7.73;;
19519;SDS011;9904;52.246;20.898;2023-10-31T02:33:54;13.63;;;7.20;;
19519;SDS011;9904;52.246;20.898;2023-10-31T02:36:21;20.37;;;7.23;;
19519;SDS011;9904;52.246;20.898;2023-10-31T02:38:48;18.80;;;8.30;;
19519;SDS011;9904;52.246;20.898;2023-10-31T02:41:15;13.73;;;6.90;;
19519;SDS011;9904;52.246;20.898;2023-10-31T02:43:42;20.17;;;7.47;;
19519;SDS011;9904;52.246;20.898;2023-10-31T02:46:09;17.07;;;7.53;;
19519;SDS011;9904;52.246;20.898;2023-10-31T02:49:02;15.80;;;7.67;;
19519;SDS011;9904;52.246;20.898;2023-10-31T02:51:36;21.30;;;7.23;;
19519;SDS011;9904;52.246;20.898;2023-10-31T02:54:03;14.67;;;7.03;;
19519;SDS011;9904;52.246;20.898;2023-10-31T02:56:30;16.60;;;7.07;;
19519;SDS011;9904;52.246;20.898;2023-10-31T02:59:01;14.77;;;8.00;;
19519;SDS011;9904;52.246;20.898;2023-10-31T03:01:28;21.03;;;7.07;;
19519;SDS011;9904;52.246;20.898;2023-10-31T03:03:55;14.53;;;7.63;;
19519;SDS011;9904;52.246;20.898;2023-10-31T03:06:21;18.63;;;7.03;;
19519;SDS011;9904;52.246;20.898;2023-10-31T03:08:49;18.27;;;7.53;;
19519;SDS011;9904;52.246;20.898;2023-10-31T03:11:25;18.10;;;6.93;;
19519;SDS011;9904;52.246;20.898;2023-10-31T03:13:53;14.40;;;7.13;;
19519;SDS011;9904;52.246;20.898;2023-10-31T03:16:20;17.97;;;6.50;;
19519;SDS011;9904;52.246;20.898;2023-10-31T03:18:50;16.67;;;6.73;;
19519;SDS011;9904;52.246;20.898;2023-10-31T03:21:17;16.53;;;6.27;;
19519;SDS011;9904;52.246;20.898;2023-10-31T03:23:47;15.67;;;6.70;;
19519;SDS011;9904;52.246;20.898;2023-10-31T03:26:16;16.10;;;5.97;;
19519;SDS011;9904;52.246;20.898;2023-10-31T03:28:43;13.93;;;5.90;;
19519;SDS011;9904;52.246;20.898;2023-10-31T03:31:11;11.53;;;6.03;;
19519;SDS011;9904;52.246;20.898;2023-10-31T03:33:38;17.47;;;6.10;;
19519;SDS011;9904;52.246;20.898;2023-10-31T03:36:05;15.67;;;6.10;;
19519;SDS011;9904;52.246;20.898;2023-10-31T03:38:34;15.67;;;5.90;;
19519;SDS011;9904;52.246;20.898;2023-10-31T03:41:02;13.03;;;5.70;;
19519;SDS011;9904;52.246;20.898;2023-10-31T03:43:29;20.17;;;6.57;;
19519;SDS011;9904;52.246;20.898;2023-10-31T03:45:55;13.10;;;5.97;;
19519;SDS011;9904;52.246;20.898;2023-10-31T03:48:22;14.23;;;5.67;;
19519;SDS011;9904;52.246;20.898;2023-10-31T03:50:52;12.23;;;5.23;;
19519;SDS011;9904;52.246;20.898;2023-10-31T03:53:19;10.73;;;4.60;;
19519;SDS011;9904;52.246;20.898;2023-10-31T03:55:46;16.70;;;5.70;;
19519;SDS011;9904;52.246;20.898;2023-10-31T03:58:12;12.37;;;5.17;;
19519;SDS011;9904;52.246;20.898;2023-10-31T04:00:39;19.80;;;5.47;;
19519;SDS011;9904;52.246;20.898;2023-10-31T04:03:07;13.00;;;4.93;;
19519;SDS011;9904;52.246;20.898;2023-10-31T04:05:35;16.77;;;5.10;;
19519;SDS011;9904;52.246;20.898;2023-10-31T04:08:02;12.53;;;5.07;;
19519;SDS011;9904;52.246;20.898;2023-10-31T04:10:28;12.40;;;5.27;;
19519;SDS011;9904;52.246;20.898;2023-10-31T04:12:57;10.50;;;3.97;;
19519;SDS011;9904;52.246;20.898;2023-10-31T04:15:24;12.20;;;5.30;;
19519;SDS011;9904;52.246;20.898;2023-10-31T04:17:50;9.90;;;4.37;;
19519;SDS011;9904;52.246;20.898;2023-10-31T04:20:24;13.20;;;4.60;;
19519;SDS011;9904;52.246;20.898;2023-10-31T04:22:51;11.00;;;4.80;;
19519;SDS011;9904;52.246;20.898;2023-10-31T04:25:18;13.77;;;4.17;;
19519;SDS011;9904;52.246;20.898;2023-10-31T04:27:44;9.30;;;4.03;;
19519;SDS011;9904;52.246;20.898;2023-10-31T04:30:11;13.40;;;4.13;;
19519;SDS011;9904;52.246;20.898;2023-10-31T04:32:40;14.43;;;4.30;;
19519;SDS011;9904;52.246;20.898;2023-10-31T04:35:07;11.67;;;4.20;;
19519;SDS011;9904;52.246;20.898;2023-10-31T04:37:34;17.63;;;4.27;;
19519;SDS011;9904;52.246;20.898;2023-10-31T04:40:00;12.87;;;4.70;;
19519;SDS011;9904;52.246;20.898;2023-10-31T04:42:27;10.33;;;4.30;;
19519;SDS011;9904;52.246;20.898;2023-10-31T04:44:54;10.80;;;4.07;;
19519;SDS011;9904;52.246;20.898;2023-10-31T04:47:20;12.40;;;4.17;;
19519;SDS011;9904;52.246;20.898;2023-10-31T04:49:47;12.13;;;4.13;;
19519;SDS011;9904;52.246;20.898;2023-10-31T04:52:16;9.07;;;4.33;;
19519;SDS011;9904;52.246;20.898;2023-10-31T04:54:43;10.70;;;4.03;;
19519;SDS011;9904;52.246;20.898;2023-10-31T04:57:10;12.47;;;4.37;;
19519;SDS011;9904;52.246;20.898;2023-10-31T05:00:01;14.00;;;4.50;;
19519;SDS011;9904;52.246;20.898;2023-10-31T05:02:33;11.03;;;4.03;;
19519;SDS011;9904;52.246;20.898;2023-10-31T05:05:00;10.63;;;4.50;;
19519;SDS011;9904;52.246;20.898;2023-10-31T05:07:27;11.17;;;4.30;;
19519;SDS011;9904;52.246;20.898;2023-10-31T05:09:54;10.30;;;3.80;;
19519;SDS011;9904;52.246;20.898;2023-10-31T05:12:21;10.57;;;4.00;;
19519;SDS011;9904;52.246;20.898;2023-10-31T05:14:48;10.40;;;4.10;;
19519;SDS011;9904;52.246;20.898;2023-10-31T05:17:18;12.13;;;3.97;;
19519;SDS011;9904;52.246;20.898;2023-10-31T05:19:45;11.57;;;4.00;;
19519;SDS011;9904;52.246;20.898;2023-10-31T05:22:12;10.23;;;3.87;;
19519;SDS011;9904;52.246;20.898;2023-10-31T05:24:38;13.50;;;4.17;;
19519;SDS011;9904;52.246;20.898;2023-10-31T05:27:05;14.67;;;4.17;;
19519;SDS011;9904;52.246;20.898;2023-10-31T05:29:33;11.70;;;4.03;;
19519;SDS011;9904;52.246;20.898;2023-10-31T05:32:00;13.60;;;4.20;;
19519;SDS011;9904;52.246;20.898;2023-10-31T05:34:27;11.03;;;3.63;;
19519;SDS011;9904;52.246;20.898;2023-10-31T05:36:54;13.70;;;4.03;;
19519;SDS011;9904;52.246;20.898;2023-10-31T05:39:21;11.87;;;3.73;;
19519;SDS011;9904;52.246;20.898;2023-10-31T05:41:48;12.00;;;3.70;;
19519;SDS011;9904;52.246;20.898;2023-10-31T05:44:15;10.30;;;4.00;;
19519;SDS011;9904;52.246;20.898;2023-10-31T05:46:50;10.50;;;4.07;;
19519;SDS011;9904;52.246;20.898;2023-10-31T05:49:17;11.67;;;3.53;;
19519;SDS011;9904;52.246;20.898;2023-10-31T05:51:51;11.17;;;3.57;;
19519;SDS011;9904;52.246;20.898;2023-10-31T05:54:19;9.73;;;4.17;;
19519;SDS011;9904;52.246;20.898;2023-10-31T05:56:46;10.70;;;3.90;;
19519;SDS011;9904;52.246;20.898;2023-10-31T05:59:13;10.13;;;4.40;;
19519;SDS011;9904;52.246;20.898;2023-10-31T06:01:39;14.43;;;4.43;;
19519;SDS011;9904;52.246;20.898;2023-10-31T06:04:07;14.03;;;4.03;;
19519;SDS011;9904;52.246;20.898;2023-10-31T06:06:36;13.63;;;3.80;;
19519;SDS011;9904;52.246;20.898;2023-10-31T06:09:13;11.60;;;3.30;;
19519;SDS011;9904;52.246;20.898;2023-10-31T06:11:41;8.47;;;3.50;;
19519;SDS011;9904;52.246;20.898;2023-10-31T06:14:09;13.33;;;3.70;;
19519;SDS011;9904;52.246;20.898;2023-10-31T06:16:42;10.87;;;3.43;;
19519;SDS011;9904;52.246;20.898;2023-10-31T06:19:10;15.43;;;4.20;;
19519;SDS011;9904;52.246;20.898;2023-10-31T06:21:38;13.20;;;3.60;;
19519;SDS011;9904;52.246;20.898;2023-10-31T06:24:04;12.67;;;3.67;;
19519;SDS011;9904;52.246;20.898;2023-10-31T06:26:32;11.50;;;3.50;;
19519;SDS011;9904;52.246;20.898;2023-10-31T06:28:59;10.17;;;3.63;;
19519;SDS011;9904;52.246;20.898;2023-10-31T06:31:46;10.70;;;3.30;;
19519;SDS011;9904;52.246;20.898;2023-10-31T06:34:24;18.73;;;3.90;;
19519;SDS011;9904;52.246;20.898;2023-10-31T06:36:51;10.73;;;3.83;;
19519;SDS011;9904;52.246;20.898;2023-10-31T06:39:20;9.50;;;3.30;;
19519;SDS011;9904;52.246;20.898;2023-10-31T06:41:54;11.70;;;3.60;;
19519;SDS011;9904;52.246;20.898;2023-10-31T06:44:23;12.63;;;3.17;;
19519;SDS011;9904;52.246;20.898;2023-10-31T06:46:49;6.60;;;3.07;;
19519;SDS011;9904;52.246;20.898;2023-10-31T06:49:16;11.23;;;3.60;;
19519;SDS011;9904;52.246;20.898;2023-10-31T06:51:42;6.93;;;3.50;;
19519;SDS011;9904;52.246;20.898;2023-10-31T06:54:09;13.27;;;3.47;;
19519;SDS011;9904;52.246;20.898;2023-10-31T06:56:35;17.30;;;4.17;;
19519;SDS011;9904;52.246;20.898;2023-10-31T06:59:02;10.10;;;3.53;;
19519;SDS011;9904;52.246;20.898;2023-10-31T07:01:31;12.47;;;3.77;;
19519;SDS011;9904;52.246;20.898;2023-10-31T07:04:03;9.87;;;3.53;;
19519;SDS011;9904;52.246;20.898;2023-10-31T07:06:29;10.17;;;4.03;;
19519;SDS011;9904;52.246;20.898;2023-10-31T07:08:56;15.43;;;3.77;;
19519;SDS011;9904;52.246;20.898;2023-10-31T07:11:23;7.97;;;3.33;;
19519;SDS011;9904;52.246;20.898;2023-10-31T07:13:50;14.10;;;3.93;;
19519;SDS011;9904;52.246;20.898;2023-10-31T07:16:18;9.77;;;3.90;;
19519;SDS011;9904;52.246;20.898;2023-10-31T07:18:48;8.10;;;3.80;;
19519;SDS011;9904;52.246;20.898;2023-10-31T07:21:14;11.57;;;3.40;;
19519;SDS011;9904;52.246;20.898;2023-10-31T07:23:41;9.90;;;3.40;;
19519;SDS011;9904;52.246;20.898;2023-10-31T07:26:07;21.70;;;4.20;;
19519;SDS011;9904;52.246;20.898;2023-10-31T07:28:37;9.53;;;3.83;;
19519;SDS011;9904;52.246;20.898;2023-10-31T07:31:03;11.33;;;3.60;;
19519;SDS011;9904;52.246;20.898;2023-10-31T07:33:32;15.87;;;4.40;;
19519;SDS011;9904;52.246;20.898;2023-10-31T07:35:59;13.63;;;3.97;;
19519;SDS011;9904;52.246;20.898;2023-10-31T07:38:25;7.73;;;3.37;;
19519;SDS011;9904;52.246;20.898;2023-10-31T07:40:52;12.40;;;3.67;;
19519;SDS011;9904;52.246;20.898;2023-10-31T07:43:42;11.77;;;3.83;;
19519;SDS011;9904;52.246;20.898;2023-10-31T07:46:09;10.03;;;3.60;;
19519;SDS011;9904;52.246;20.898;2023-10-31T07:48:36;12.27;;;3.53;;
19519;SDS011;9904;52.246;20.898;2023-10-31T07:51:02;16.87;;;3.80;;
19519;SDS011;9904;52.246;20.898;2023-10-31T07:53:30;14.03;;;3.87;;
19519;SDS011;9904;52.246;20.898;2023-10-31T07:55:58;8.13;;;3.30;;
19519;SDS011;9904;52.246;20.898;2023-10-31T07:58:24;15.30;;;3.43;;
19519;SDS011;9904;52.246;20.898;2023-10-31T08:00:51;11.77;;;3.80;;
19519;SDS011;9904;52.246;20.898;2023-10-31T08:03:18;11.47;;;3.40;;
19519;SDS011;9904;52.246;20.898;2023-10-31T08:05:44;10.03;;;3.27;;
19519;SDS011;9904;52.246;20.898;2023-10-31T08:08:11;10.50;;;3.33;;
19519;SDS011;9904;52.246;20.898;2023-10-31T08:10:38;8.50;;;2.97;;
19519;SDS011;9904;52.246;20.898;2023-10-31T08:13:04;18.70;;;3.63;;
19519;SDS011;9904;52.246;20.898;2023-10-31T08:15:35;8.93;;;3.13;;
19519;SDS011;9904;52.246;20.898;2023-10-31T08:18:01;9.10;;;3.40;;
19519;SDS011;9904;52.246;20.898;2023-10-31T08:20:29;9.20;;;3.30;;
19519;SDS011;9904;52.246;20.898;2023-10-31T08:22:59;10.37;;;2.80;;
19519;SDS011;9904;52.246;20.898;2023-10-31T08:25:26;5.83;;;2.73;;
19519;SDS011;9904;52.246;20.898;2023-10-31T08:27:52;6.20;;;3.07;;
19519;SDS011;9904;52.246;20.898;2023-10-31T08:30:19;8.93;;;3.20;;
19519;SDS011;9904;52.246;20.898;2023-10-31T08:32:46;13.73;;;3.17;;
19519;SDS011;9904;52.246;20.898;2023-10-31T08:35:14;7.40;;;2.93;;
19519;SDS011;9904;52.246;20.898;2023-10-31T08:37:48;10.67;;;3.10;;
19519;SDS011;9904;52.246;20.898;2023-10-31T08:40:15;11.13;;;2.93;;
19519;SDS011;9904;52.246;20.898;2023-10-31T08:42:41;11.40;;;2.90;;
19519;SDS011;9904;52.246;20.898;2023-10-31T08:45:18;8.47;;;3.30;;
19519;SDS011;9904;52.246;20.898;2023-10-31T08:47:44;17.87;;;3.80;;
19519;SDS011;9904;52.246;20.898;2023-10-31T08:50:11;10.87;;;3.63;;
19519;SDS011;9904;52.246;20.898;2023-10-31T08:52:38;7.37;;;3.43;;
19519;SDS011;9904;52.246;20.898;2023-10-31T08:55:05;9.60;;;2.60;;
19519;SDS011;9904;52.246;20.898;2023-10-31T08:57:57;8.60;;;2.90;;
19519;SDS011;9904;52.246;20.898;2023-10-31T09:00:47;10.33;;;3.53;;
19519;SDS011;9904;52.246;20.898;2023-10-31T09:03:16;5.47;;;2.97;;
19519;SDS011;9904;52.246;20.898;2023-10-31T09:05:42;10.20;;;3.00;;
19519;SDS011;9904;52.246;20.898;2023-10-31T09:08:11;10.60;;;2.80;;
19519;SDS011;9904;52.246;20.898;2023-10-31T09:10:40;12.00;;;2.83;;
19519;SDS011;9904;52.246;20.898;2023-10-31T09:13:09;9.83;;;3.07;;
19519;SDS011;9904;52.246;20.898;2023-10-31T09:15:37;11.93;;;3.37;;
19519;SDS011;9904;52.246;20.898;2023-10-31T09:18:05;8.20;;;2.70;;
19519;SDS011;9904;52.246;20.898;2023-10-31T09:20:33;10.03;;;3.20;;
19519;SDS011;9904;52.246;20.898;2023-10-31T09:23:00;12.03;;;3.13;;
19519;SDS011;9904;52.246;20.898;2023-10-31T09:25:27;14.10;;;3.07;;
19519;SDS011;9904;52.246;20.898;2023-10-31T09:27:53;8.77;;;2.97;;
19519;SDS011;9904;52.246;20.898;2023-10-31T09:30:20;8.83;;;2.70;;
19519;SDS011;9904;52.246;20.898;2023-10-31T09:32:48;7.13;;;2.83;;
19519;SDS011;9904;52.246;20.898;2023-10-31T09:35:15;9.37;;;3.17;;
19519;SDS011;9904;52.246;20.898;2023-10-31T09:37:43;6.97;;;2.90;;
19519;SDS011;9904;52.246;20.898;2023-10-31T09:40:10;10.33;;;3.57;;
19519;SDS011;9904;52.246;20.898;2023-10-31T09:42:36;7.33;;;3.27;;
19519;SDS011;9904;52.246;20.898;2023-10-31T09:45:04;10.73;;;3.40;;
19519;SDS011;9904;52.246;20.898;2023-10-31T09:47:34;10.33;;;3.20;;
19519;SDS011;9904;52.246;20.898;2023-10-31T09:50:01;10.00;;;3.57;;
19519;SDS011;9904;52.246;20.898;2023-10-31T09:52:28;9.87;;;2.67;;
19519;SDS011;9904;52.246;20.898;2023-10-31T09:54:55;6.97;;;3.33;;
19519;SDS011;9904;52.246;20.898;2023-10-31T09:57:22;10.57;;;3.40;;
19519;SDS011;9904;52.246;20.898;2023-10-31T09:59:49;6.37;;;2.80;;
19519;SDS011;9904;52.246;20.898;2023-10-31T10:02:40;11.07;;;3.30;;
19519;SDS011;9904;52.246;20.898;2023-10-31T10:05:31;8.77;;;3.13;;
19519;SDS011;9904;52.246;20.898;2023-10-31T10:08:06;12.87;;;3.23;;
19519;SDS011;9904;52.246;20.898;2023-10-31T10:10:37;16.43;;;3.33;;
19519;SDS011;9904;52.246;20.898;2023-10-31T10:13:04;9.80;;;3.40;;
19519;SDS011;9904;52.246;20.898;2023-10-31T10:15:42;9.97;;;3.43;;
19519;SDS011;9904;52.246;20.898;2023-10-31T10:18:27;12.00;;;3.10;;
19519;SDS011;9904;52.246;20.898;2023-10-31T10:20:59;11.57;;;2.93;;
19519;SDS011;9904;52.246;20.898;2023-10-31T10:23:27;10.83;;;3.07;;
19519;SDS011;9904;52.246;20.898;2023-10-31T10:25:54;9.90;;;2.90;;
19519;SDS011;9904;52.246;20.898;2023-10-31T10:28:24;11.43;;;3.00;;
19519;SDS011;9904;52.246;20.898;2023-10-31T10:30:52;10.40;;;3.33;;
19519;SDS011;9904;52.246;20.898;2023-10-31T10:33:20;14.43;;;3.07;;
19519;SDS011;9904;52.246;20.898;2023-10-31T10:35:48;12.27;;;3.43;;
19519;SDS011;9904;52.246;20.898;2023-10-31T10:38:16;12.63;;;3.60;;
19519;SDS011;9904;52.246;20.898;2023-10-31T10:40:45;10.97;;;3.30;;
19519;SDS011;9904;52.246;20.898;2023-10-31T10:43:19;7.80;;;3.13;;
19519;SDS011;9904;52.246;20.898;2023-10-31T10:45:46;9.43;;;2.93;;
19519;SDS011;9904;52.246;20.898;2023-10-31T10:48:22;10.10;;;3.13;;
19519;SDS011;9904;52.246;20.898;2023-10-31T10:50:52;8.13;;;3.07;;
19519;SDS011;9904;52.246;20.898;2023-10-31T10:53:27;10.73;;;2.97;;
19519;SDS011;9904;52.246;20.898;2023-10-31T10:56:07;9.20;;;3.10;;
19519;SDS011;9904;52.246;20.898;2023-10-31T10:59:01;11.50;;;2.50;;
19519;SDS011;9904;52.246;20.898;2023-10-31T11:01:34;10.17;;;2.63;;
19519;SDS011;9904;52.246;20.898;2023-10-31T11:04:02;9.87;;;2.53;;
19519;SDS011;9904;52.246;20.898;2023-10-31T11:06:29;8.33;;;2.17;;
19519;SDS011;9904;52.246;20.898;2023-10-31T11:08:57;8.23;;;2.40;;
19519;SDS011;9904;52.246;20.898;2023-10-31T11:11:24;5.40;;;2.27;;
19519;SDS011;9904;52.246;20.898;2023-10-31T11:13:54;9.33;;;2.30;;
19519;SDS011;9904;52.246;20.898;2023-10-31T11:16:30;6.47;;;2.50;;
19519;SDS011;9904;52.246;20.898;2023-10-31T11:19:03;7.23;;;2.40;;
19519;SDS011;9904;52.246;20.898;2023-10-31T11:21:32;8.30;;;2.37;;
19519;SDS011;9904;52.246;20.898;2023-10-31T11:24:01;8.40;;;2.50;;
19519;SDS011;9904;52.246;20.898;2023-10-31T11:26:29;8.07;;;2.57;;
19519;SDS011;9904;52.246;20.898;2023-10-31T11:29:06;5.57;;;1.93;;
19519;SDS011;9904;52.246;20.898;2023-10-31T11:31:37;7.30;;;1.80;;
19519;SDS011;9904;52.246;20.898;2023-10-31T11:34:04;12.23;;;2.40;;
19519;SDS011;9904;52.246;20.898;2023-10-31T11:36:35;10.47;;;2.53;;
19519;SDS011;9904;52.246;20.898;2023-10-31T11:39:15;8.77;;;2.23;;
19519;SDS011;9904;52.246;20.898;2023-10-31T11:41:49;9.00;;;2.77;;
19519;SDS011;9904;52.246;20.898;2023-10-31T11:44:17;13.37;;;2.40;;
19519;SDS011;9904;52.246;20.898;2023-10-31T11:46:44;9.20;;;2.73;;
19519;SDS011;9904;52.246;20.898;2023-10-31T11:49:16;11.97;;;3.13;;
19519;SDS011;9904;52.246;20.898;2023-10-31T11:51:44;8.17;;;2.63;;
19519;SDS011;9904;52.246;20.898;2023-10-31T11:54:15;7.23;;;2.67;;
19519;SDS011;9904;52.246;20.898;2023-10-31T11:56:50;5.97;;;2.43;;
19519;SDS011;9904;52.246;20.898;2023-10-31T11:59:19;9.77;;;2.60;;
19519;SDS011;9904;52.246;20.898;2023-10-31T12:01:47;5.67;;;2.10;;
19519;SDS011;9904;52.246;20.898;2023-10-31T12:04:23;4.07;;;2.33;;
19519;SDS011;9904;52.246;20.898;2023-10-31T12:06:57;7.27;;;2.20;;
19519;SDS011;9904;52.246;20.898;2023-10-31T12:09:25;7.47;;;2.27;;
19519;SDS011;9904;52.246;20.898;2023-10-31T12:11:52;2.63;;;1.57;;
19519;SDS011;9904;52.246;20.898;2023-10-31T12:14:19;5.37;;;2.10;;
19519;SDS011;9904;52.246;20.898;2023-10-31T12:16:48;9.63;;;1.90;;
19519;SDS011;9904;52.246;20.898;2023-10-31T12:19:14;4.50;;;1.90;;
19519;SDS011;9904;52.246;20.898;2023-10-31T12:21:42;6.43;;;2.13;;
19519;SDS011;9904;52.246;20.898;2023-10-31T12:24:11;6.70;;;2.23;;
19519;SDS011;9904;52.246;20.898;2023-10-31T12:26:39;7.93;;;1.97;;
19519;SDS011;9904;52.246;20.898;2023-10-31T12:31:47;7.13;;;2.00;;
19519;SDS011;9904;52.246;20.898;2023-10-31T12:34:16;6.30;;;1.97;;
19519;SDS011;9904;52.246;20.898;2023-10-31T12:36:44;3.07;;;1.83;;
19519;SDS011;9904;52.246;20.898;2023-10-31T12:39:13;3.37;;;1.50;;
19519;SDS011;9904;52.246;20.898;2023-10-31T12:41:43;4.10;;;1.70;;
19519;SDS011;9904;52.246;20.898;2023-10-31T12:44:11;3.87;;;1.70;;
19519;SDS011;9904;52.246;20.898;2023-10-31T12:46:41;4.73;;;1.50;;
19519;SDS011;9904;52.246;20.898;2023-10-31T12:49:11;4.97;;;2.27;;
19519;SDS011;9904;52.246;20.898;2023-10-31T12:51:54;7.43;;;1.83;;
19519;SDS011;9904;52.246;20.898;2023-10-31T12:54:35;7.27;;;1.73;;
19519;SDS011;9904;52.246;20.898;2023-10-31T12:57:07;6.70;;;1.53;;
19519;SDS011;9904;52.246;20.898;2023-10-31T12:59:37;8.60;;;1.63;;
19519;SDS011;9904;52.246;20.898;2023-10-31T13:02:05;2.83;;;1.20;;
19519;SDS011;9904;52.246;20.898;2023-10-31T13:04:34;3.93;;;1.27;;
19519;SDS011;9904;52.246;20.898;2023-10-31T13:07:02;4.17;;;1.33;;
19519;SDS011;9904;52.246;20.898;2023-10-31T13:09:34;3.23;;;1.37;;
19519;SDS011;9904;52.246;20.898;2023-10-31T13:12:03;5.40;;;1.40;;
19519;SDS011;9904;52.246;20.898;2023-10-31T13:14:34;2.43;;;1.40;;
19519;SDS011;9904;52.246;20.898;2023-10-31T13:17:03;4.80;;;1.30;;
19519;SDS011;9904;52.246;20.898;2023-10-31T13:19:30;4.50;;;1.50;;
19519;SDS011;9904;52.246;20.898;2023-10-31T13:21:56;6.70;;;1.40;;
19519;SDS011;9904;52.246;20.898;2023-10-31T13:24:23;7.10;;;1.60;;
19519;SDS011;9904;52.246;20.898;2023-10-31T13:26:50;6.53;;;1.93;;
19519;SDS011;9904;52.246;20.898;2023-10-31T13:29:19;4.27;;;1.50;;
19519;SDS011;9904;52.246;20.898;2023-10-31T13:31:46;4.50;;;1.70;;
19519;SDS011;9904;52.246;20.898;2023-10-31T13:34:12;3.73;;;1.57;;
19519;SDS011;9904;52.246;20.898;2023-10-31T13:37:03;3.50;;;1.60;;
19519;SDS011;9904;52.246;20.898;2023-10-31T13:39:29;4.87;;;1.37;;
19519;SDS011;9904;52.246;20.898;2023-10-31T13:41:56;3.40;;;1.50;;
19519;SDS011;9904;52.246;20.898;2023-10-31T13:44:23;2.87;;;1.70;;
19519;SDS011;9904;52.246;20.898;2023-10-31T13:46:49;6.00;;;1.43;;
19519;SDS011;9904;52.246;20.898;2023-10-31T13:49:16;3.07;;;1.60;;
19519;SDS011;9904;52.246;20.898;2023-10-31T13:51:42;5.67;;;1.47;;
19519;SDS011;9904;52.246;20.898;2023-10-31T13:54:09;2.63;;;1.20;;
19519;SDS011;9904;52.246;20.898;2023-10-31T13:56:36;2.73;;;1.30;;
19519;SDS011;9904;52.246;20.898;2023-10-31T13:59:02;2.10;;;1.20;;
19519;SDS011;9904;52.246;20.898;2023-10-31T14:01:29;2.70;;;1.20;;
19519;SDS011;9904;52.246;20.898;2023-10-31T14:03:56;1.60;;;1.00;;
19519;SDS011;9904;52.246;20.898;2023-10-31T14:06:23;5.33;;;1.27;;
19519;SDS011;9904;52.246;20.898;2023-10-31T14:08:57;1.53;;;0.90;;
19519;SDS011;9904;52.246;20.898;2023-10-31T14:11:25;1.57;;;1.10;;
19519;SDS011;9904;52.246;20.898;2023-10-31T14:13:52;2.47;;;1.07;;
19519;SDS011;9904;52.246;20.898;2023-10-31T14:16:19;3.50;;;1.20;;
19519;SDS011;9904;52.246;20.898;2023-10-31T14:18:46;1.27;;;0.90;;
19519;SDS011;9904;52.246;20.898;2023-10-31T14:21:13;2.80;;;1.10;;
19519;SDS011;9904;52.246;20.898;2023-10-31T14:23:40;4.40;;;1.13;;
19519;SDS011;9904;52.246;20.898;2023-10-31T14:26:07;4.70;;;1.30;;
19519;SDS011;9904;52.246;20.898;2023-10-31T14:28:34;5.03;;;1.10;;
19519;SDS011;9904;52.246;20.898;2023-10-31T14:31:01;2.97;;;1.13;;
19519;SDS011;9904;52.246;20.898;2023-10-31T14:33:28;3.57;;;1.30;;
19519;SDS011;9904;52.246;20.898;2023-10-31T14:35:56;4.20;;;1.40;;
19519;SDS011;9904;52.246;20.898;2023-10-31T14:38:23;7.60;;;1.60;;
19519;SDS011;9904;52.246;20.898;2023-10-31T14:40:50;3.60;;;1.53;;
19519;SDS011;9904;52.246;20.898;2023-10-31T14:43:17;4.50;;;1.67;;
19519;SDS011;9904;52.246;20.898;2023-10-31T14:45:45;2.40;;;1.20;;
19519;SDS011;9904;52.246;20.898;2023-10-31T14:48:11;3.90;;;1.80;;
19519;SDS011;9904;52.246;20.898;2023-10-31T14:50:38;1.93;;;1.10;;